createdAt,value
2022-11-15T11:10:03.597Z,13.90
2022-11-15T11:12:35.606Z,14.90
2022-11-15T11:15:13.499Z,15.20
2022-11-15T11:17:57.374Z,17.80
2022-11-15T11:20:31.326Z,19.40
2022-11-15T11:23:13.903Z,18.70
2022-11-15T11:25:46.176Z,19.10
2022-11-15T11:28:31.446Z,19.70
2022-11-15T11:31:27.240Z,20.10
2022-11-15T11:34:05.219Z,15.80
2022-11-15T11:36:41.044Z,16.10
2022-11-15T11:39:25.529Z,15.00
2022-11-15T11:42:04.981Z,18.00
2022-11-15T11:44:41.862Z,19.80
2022-11-15T11:47:12.811Z,21.00
2022-11-15T11:49:47.891Z,21.70
2022-11-15T11:52:22.946Z,19.50
2022-11-15T11:55:02.031Z,20.30
2022-11-15T11:57:43.722Z,22.30
2022-11-15T12:00:22.490Z,20.20
2022-11-15T12:03:02.047Z,22.40
2022-11-15T12:05:34.500Z,21.10
2022-11-15T12:08:31.631Z,18.60
2022-11-15T12:11:09.078Z,19.80
2022-11-15T12:13:39.326Z,16.00
2022-11-15T12:16:13.764Z,17.90
2022-11-15T12:18:45.876Z,18.80
2022-11-15T12:21:26.995Z,22.40
2022-11-15T12:24:04.748Z,24.00
2022-11-15T12:26:40.510Z,22.90
2022-11-15T12:29:16.411Z,21.90
2022-11-15T12:31:47.245Z,18.80
2022-11-15T12:34:43.328Z,23.20
2022-11-15T12:37:49.581Z,19.70
2022-11-15T12:40:41.245Z,17.50
2022-11-15T12:43:40.487Z,17.00
2022-11-15T12:46:21.421Z,15.50
2022-11-15T12:48:57.250Z,15.30
2022-11-15T12:52:09.134Z,18.30
2022-11-15T12:55:02.893Z,20.70
2022-11-15T12:57:41.357Z,22.10
2022-11-15T13:00:48.736Z,22.20
2022-11-15T13:03:56.241Z,21.20
2022-11-15T13:06:41.851Z,21.60
2022-11-15T13:09:54.383Z,20.70
2022-11-15T13:12:57.957Z,19.50
2022-11-15T13:15:47.885Z,18.70
2022-11-15T13:18:36.143Z,18.20
2022-11-15T13:21:37.147Z,19.90
2022-11-15T13:24:16.766Z,20.80
2022-11-15T13:26:46.655Z,22.40
2022-11-15T13:29:20.582Z,23.60
2022-11-15T13:31:50.530Z,25.40
2022-11-15T13:34:50.558Z,23.90
2022-11-15T13:37:33.082Z,25.60
2022-11-15T13:40:27.936Z,24.40
2022-11-15T13:42:58.419Z,21.00
2022-11-15T13:45:27.828Z,18.50
2022-11-15T13:47:59.020Z,19.90
2022-11-15T13:50:34.735Z,19.30
2022-11-15T13:53:05.092Z,23.50
2022-11-15T13:55:34.542Z,28.70
2022-11-15T13:58:06.713Z,21.70
2022-11-15T14:00:39.204Z,21.20
2022-11-15T14:03:16.803Z,27.40
2022-11-15T14:05:46.708Z,24.90
2022-11-15T14:08:25.878Z,22.10
2022-11-15T14:11:20.121Z,18.50
2022-11-15T14:14:14.280Z,21.00
2022-11-15T14:16:44.971Z,18.40
2022-11-15T14:19:29.928Z,18.90
2022-11-15T14:22:22.259Z,22.70
2022-11-15T14:25:16.133Z,23.50
2022-11-15T14:27:46.425Z,22.00
2022-11-15T14:30:17.930Z,26.20
2022-11-15T14:32:49.583Z,25.30
2022-11-15T14:35:21.330Z,26.50
2022-11-15T14:37:51.511Z,27.30
2022-11-15T14:40:23.076Z,23.10
2022-11-15T14:42:52.775Z,23.10
2022-11-15T14:45:23.574Z,24.00
2022-11-15T14:47:53.657Z,23.80
2022-11-15T14:50:23.822Z,23.90
2022-11-15T14:52:53.379Z,23.60
2022-11-15T14:55:25.135Z,24.30
2022-11-15T14:57:55.304Z,22.90
2022-11-15T15:00:26.433Z,26.00
2022-11-15T15:02:57.744Z,25.30
2022-11-15T15:05:33.148Z,23.90
2022-11-15T15:08:03.076Z,23.00
2022-11-15T15:10:40.939Z,20.70
2022-11-15T15:13:18.624Z,19.90
2022-11-15T15:15:49.040Z,20.50
2022-11-15T15:18:18.812Z,21.60
2022-11-15T15:20:57.272Z,28.00
2022-11-15T15:23:29.788Z,26.20
2022-11-15T15:26:01.106Z,27.00
2022-11-15T15:28:34.518Z,35.70
2022-11-15T15:31:07.799Z,29.60
2022-11-15T15:33:37.652Z,39.10
2022-11-15T15:36:11.502Z,36.10
2022-11-15T15:38:41.882Z,31.30
2022-11-15T15:41:13.656Z,25.20
2022-11-15T15:43:43.382Z,22.00
2022-11-15T15:46:18.017Z,22.00
2022-11-15T15:48:47.590Z,26.40
2022-11-15T15:51:20.406Z,23.60
2022-11-15T15:53:53.271Z,27.60
2022-11-15T15:56:22.932Z,30.90
2022-11-15T15:58:53.148Z,29.30
2022-11-15T16:01:23.490Z,29.00
2022-11-15T16:03:53.114Z,23.50
2022-11-15T16:06:39.733Z,24.50
2022-11-15T16:09:16.168Z,25.10
2022-11-15T16:11:49.311Z,22.60
2022-11-15T16:14:18.995Z,22.00
2022-11-15T16:16:48.940Z,24.10
2022-11-15T16:19:18.561Z,25.10
2022-11-15T16:21:48.214Z,28.40
2022-11-15T16:24:17.943Z,24.60
2022-11-15T16:26:47.690Z,22.40
2022-11-15T16:29:17.357Z,24.40
2022-11-15T16:31:47.052Z,19.70
2022-11-15T16:34:16.560Z,21.60
2022-11-15T16:36:46.616Z,22.40
2022-11-15T16:39:19.082Z,21.90
2022-11-15T16:41:48.989Z,25.30
2022-11-15T16:44:19.034Z,21.30
2022-11-15T16:46:51.447Z,23.20
2022-11-15T16:49:22.888Z,25.10
2022-11-15T16:51:53.967Z,22.60
2022-11-15T16:54:23.661Z,22.10
2022-11-15T16:56:55.306Z,24.20
2022-11-15T16:59:25.570Z,20.70
2022-11-15T17:01:55.402Z,22.40
2022-11-15T17:04:27.426Z,21.20
2022-11-15T17:06:57.408Z,25.00
2022-11-15T17:09:27.446Z,24.70
2022-11-15T17:11:57.112Z,23.10
2022-11-15T17:14:31.936Z,26.10
2022-11-15T17:17:07.491Z,26.00
2022-11-15T17:20:12.279Z,24.40
2022-11-15T17:22:42.599Z,22.00
2022-11-15T17:25:19.944Z,20.20
2022-11-15T17:28:04.446Z,24.60
2022-11-15T17:30:49.605Z,20.20
2022-11-15T17:33:25.372Z,22.70
2022-11-15T17:36:05.307Z,21.70
2022-11-15T17:38:35.357Z,21.10
2022-11-15T17:41:09.278Z,24.80
2022-11-15T17:43:39.227Z,23.20
2022-11-15T17:46:11.482Z,24.90
2022-11-15T17:48:43.925Z,26.80
2022-11-15T17:51:17.584Z,22.90
2022-11-15T17:53:50.081Z,22.00
2022-11-15T17:56:21.754Z,22.30
2022-11-15T17:58:54.182Z,25.10
2022-11-15T18:01:28.522Z,30.20
2022-11-15T18:04:13.350Z,24.90
2022-11-15T18:06:43.278Z,25.40
2022-11-15T18:09:18.441Z,23.40
2022-11-15T18:11:51.319Z,27.20
2022-11-15T18:14:26.088Z,24.50
2022-11-15T18:16:57.417Z,22.60
2022-11-15T18:19:36.260Z,25.30
2022-11-15T18:22:09.501Z,19.60
2022-11-15T18:24:42.471Z,23.90
2022-11-15T18:27:14.431Z,23.50
2022-11-15T18:29:44.814Z,18.40
2022-11-15T18:32:17.401Z,21.50
2022-11-15T18:34:47.663Z,19.10
2022-11-15T18:37:19.390Z,20.00
2022-11-15T18:39:53.774Z,22.70
2022-11-15T18:42:25.232Z,26.40
2022-11-15T18:44:56.849Z,26.30
2022-11-15T18:47:32.937Z,23.50
2022-11-15T18:50:03.898Z,20.10
2022-11-15T18:52:34.445Z,20.00
2022-11-15T18:55:06.970Z,20.50
2022-11-15T18:57:38.668Z,19.20
2022-11-15T19:00:17.466Z,17.80
2022-11-15T19:02:48.553Z,23.30
2022-11-15T19:05:20.972Z,23.20
2022-11-15T19:07:51.969Z,17.80
2022-11-15T19:10:22.099Z,21.10
2022-11-15T19:12:51.762Z,21.40
2022-11-15T19:15:21.406Z,20.30
2022-11-15T19:17:51.568Z,21.90
2022-11-15T19:20:21.479Z,21.40
2022-11-15T19:22:51.816Z,16.50
2022-11-15T19:25:23.038Z,21.70
2022-11-15T19:28:00.765Z,19.70
2022-11-15T19:30:31.020Z,23.10
2022-11-15T19:33:01.267Z,19.40
2022-11-15T19:35:31.948Z,20.70
2022-11-15T19:38:04.529Z,17.80
2022-11-15T19:40:35.800Z,20.70
2022-11-15T19:43:05.641Z,19.90
2022-11-15T19:45:36.068Z,21.90
2022-11-15T19:48:08.888Z,19.30
2022-11-15T19:50:39.945Z,17.80
2022-11-15T19:53:09.701Z,19.20
2022-11-15T19:55:39.960Z,20.50
2022-11-15T19:58:11.441Z,19.60
2022-11-15T20:00:42.470Z,19.70
2022-11-15T20:03:11.958Z,18.00
2022-11-15T20:05:42.050Z,18.60
2022-11-15T20:08:12.635Z,20.40
2022-11-15T20:11:06.424Z,17.60
2022-11-15T20:13:36.416Z,18.90
2022-11-15T20:16:07.650Z,17.70
2022-11-15T20:18:37.545Z,22.80
2022-11-15T20:21:08.561Z,20.80
2022-11-15T20:23:38.527Z,20.40
2022-11-15T20:26:10.520Z,19.60
2022-11-15T20:28:40.665Z,20.90
2022-11-15T20:31:10.863Z,19.00
2022-11-15T20:33:40.511Z,17.00
2022-11-15T20:36:13.473Z,17.40
2022-11-15T20:38:43.771Z,20.00
2022-11-15T20:41:13.639Z,20.00
2022-11-15T20:43:43.331Z,16.30
2022-11-15T20:46:13.281Z,18.00
2022-11-15T20:48:43.353Z,17.50
2022-11-15T20:51:14.618Z,17.90
2022-11-15T20:53:44.729Z,19.30
2022-11-15T20:56:17.015Z,19.20
2022-11-15T20:58:46.997Z,18.70
2022-11-15T21:01:19.363Z,20.20
2022-11-15T21:03:49.025Z,18.40
2022-11-15T21:06:26.296Z,19.10
2022-11-15T21:09:18.872Z,19.10
2022-11-15T21:12:09.858Z,17.10
2022-11-15T21:14:39.590Z,17.60
2022-11-15T21:17:09.367Z,22.40
2022-11-15T21:19:39.117Z,18.90
2022-11-15T21:22:09.324Z,20.50
2022-11-15T21:24:38.936Z,20.40
2022-11-15T21:27:09.109Z,18.70
2022-11-15T21:29:40.240Z,16.00
2022-11-15T21:32:11.014Z,18.30
2022-11-15T21:34:40.740Z,19.10
2022-11-15T21:37:10.530Z,16.80
2022-11-15T21:39:40.861Z,18.40
2022-11-15T21:42:10.708Z,17.50
2022-11-15T21:44:40.311Z,18.80
2022-11-15T21:47:10.036Z,18.60
2022-11-15T21:49:40.780Z,15.80
2022-11-15T21:52:10.640Z,17.70
2022-11-15T21:54:44.078Z,16.30
2022-11-15T21:57:14.005Z,15.30
2022-11-15T21:59:58.751Z,18.00
2022-11-15T22:02:29.798Z,17.30
2022-11-15T22:05:00.583Z,16.10
2022-11-15T22:07:32.680Z,17.00
2022-11-15T22:10:03.282Z,17.80
2022-11-15T22:12:35.218Z,17.60
2022-11-15T22:15:07.919Z,18.10
2022-11-15T22:17:57.117Z,16.80
2022-11-15T22:20:45.502Z,18.60
2022-11-15T22:23:16.489Z,17.30
2022-11-15T22:25:46.758Z,17.60
2022-11-15T22:28:17.867Z,17.80
2022-11-15T22:30:48.911Z,17.50
2022-11-15T22:33:21.446Z,20.10
2022-11-15T22:35:51.817Z,17.20
2022-11-15T22:38:22.170Z,17.80
2022-11-15T22:40:52.544Z,17.10
2022-11-15T22:43:24.438Z,17.30
2022-11-15T22:45:58.149Z,18.20
2022-11-15T22:48:30.082Z,17.80
2022-11-15T22:51:00.182Z,18.30
2022-11-15T22:53:30.660Z,18.60
2022-11-15T22:56:02.505Z,15.60
2022-11-15T22:58:33.894Z,18.30
2022-11-15T23:01:05.573Z,16.40
2022-11-15T23:03:36.144Z,17.60
2022-11-15T23:06:08.348Z,17.80
2022-11-15T23:08:38.893Z,17.90
2022-11-15T23:11:29.854Z,17.50
2022-11-15T23:14:00.154Z,17.70
2022-11-15T23:16:34.830Z,16.80
2022-11-15T23:19:07.306Z,17.10
2022-11-15T23:21:59.863Z,17.30
2022-11-15T23:24:30.193Z,16.50
2022-11-15T23:27:02.124Z,17.00
2022-11-15T23:29:32.576Z,18.40
2022-11-15T23:32:32.875Z,18.20
2022-11-15T23:35:03.181Z,18.30
2022-11-15T23:37:33.760Z,16.90
2022-11-15T23:40:04.938Z,14.70
2022-11-15T23:42:35.084Z,16.60
2022-11-15T23:45:06.809Z,18.00
2022-11-15T23:47:36.849Z,17.40
2022-11-15T23:50:09.676Z,17.00
2022-11-15T23:52:39.679Z,16.50
2022-11-15T23:55:11.294Z,17.40
2022-11-15T23:57:41.429Z,16.40
